aviador You're here:

DAAT Decoded Metar

TAMANRASSET in ALGERIA
Report Time2017-11-20 05:30:00
UTC Time2017-11-20 05:41:50
Flight Rules vfr VFR
Wind080° at 11 kt
W.Decomp.*RWY 08: 11.0 kt HW -0 kt LCW
RWY 02: 5.5 kt HW 9.5 kt RCW
W.Rank080° ranks 1
Current wind is above 080° avg. (9.8)
Visibility9999 m
Phenomena:N/A
Clouds:N/A
Expected CloudBase > 10,400 ft AGL from Temp-Dew spread
CeilingNone
Temp18°C (ISA +12)
Dew Point-8°C (16% RH)
AAT11.1°C
QNH1020 hPa
Density Alt5,722 ft
Elevation4,518 ft
Report Wrong Elevation
Raw Report
DAAT 200530Z 08011KT CAVOK 18/M08 Q1020=

Extra information for DAAT:More info

Metar Taf Metar & Taf Last 4 Metars F.Rules Stats Wind Profile Meteogram Temp Stats Airport Information Weather charts Add Link Nearby VenuesMetar ALERT Operation Metar Decoded Social comments